sensor_id;sensor_type;location;lat;lon;timestamp;P1;durP1;ratioP1;P2;durP2;ratioP2
75456;SDS011;64036;48.266;14.192;2024-01-15T00:00:33;20.40;;;9.10;;
75456;SDS011;64036;48.266;14.192;2024-01-15T00:03:12;24.00;;;9.60;;
75456;SDS011;64036;48.266;14.192;2024-01-15T00:05:56;27.00;;;10.10;;
75456;SDS011;64036;48.266;14.192;2024-01-15T00:08:30;20.20;;;7.70;;
75456;SDS011;64036;48.266;14.192;2024-01-15T00:14:19;22.00;;;9.10;;
75456;SDS011;64036;48.266;14.192;2024-01-15T00:20:41;19.90;;;8.30;;
75456;SDS011;64036;48.266;14.192;2024-01-15T00:23:07;21.60;;;8.90;;
75456;SDS011;64036;48.266;14.192;2024-01-15T00:25:33;18.70;;;8.90;;
75456;SDS011;64036;48.266;14.192;2024-01-15T00:31:09;20.20;;;8.20;;
75456;SDS011;64036;48.266;14.192;2024-01-15T00:33:59;14.60;;;6.90;;
75456;SDS011;64036;48.266;14.192;2024-01-15T00:36:41;18.70;;;7.70;;
75456;SDS011;64036;48.266;14.192;2024-01-15T00:42:02;20.70;;;9.20;;
75456;SDS011;64036;48.266;14.192;2024-01-15T00:48:15;25.20;;;9.80;;
75456;SDS011;64036;48.266;14.192;2024-01-15T00:50:51;22.10;;;9.40;;
75456;SDS011;64036;48.266;14.192;2024-01-15T00:53:20;20.70;;;9.40;;
75456;SDS011;64036;48.266;14.192;2024-01-15T00:55:58;22.80;;;9.90;;
75456;SDS011;64036;48.266;14.192;2024-01-15T00:58:33;20.90;;;9.00;;
75456;SDS011;64036;48.266;14.192;2024-01-15T01:01:01;23.10;;;9.40;;
75456;SDS011;64036;48.266;14.192;2024-01-15T01:03:29;23.20;;;9.30;;
75456;SDS011;64036;48.266;14.192;2024-01-15T01:05:58;20.60;;;7.80;;
75456;SDS011;64036;48.266;14.192;2024-01-15T01:08:24;18.80;;;7.30;;
75456;SDS011;64036;48.266;14.192;2024-01-15T01:13:59;21.70;;;9.10;;
75456;SDS011;64036;48.266;14.192;2024-01-15T01:16:28;19.30;;;8.70;;
75456;SDS011;64036;48.266;14.192;2024-01-15T01:19:02;21.90;;;8.30;;
75456;SDS011;64036;48.266;14.192;2024-01-15T01:21:27;22.60;;;9.90;;
75456;SDS011;64036;48.266;14.192;2024-01-15T01:24:14;18.00;;;8.10;;
75456;SDS011;64036;48.266;14.192;2024-01-15T01:26:49;20.80;;;8.50;;
75456;SDS011;64036;48.266;14.192;2024-01-15T01:29:15;17.90;;;7.50;;
75456;SDS011;64036;48.266;14.192;2024-01-15T01:31:51;17.10;;;7.00;;
75456;SDS011;64036;48.266;14.192;2024-01-15T01:34:32;19.40;;;7.90;;
75456;SDS011;64036;48.266;14.192;2024-01-15T01:37:03;17.00;;;6.90;;
75456;SDS011;64036;48.266;14.192;2024-01-15T01:42:00;15.20;;;6.80;;
75456;SDS011;64036;48.266;14.192;2024-01-15T01:44:26;17.80;;;8.20;;
75456;SDS011;64036;48.266;14.192;2024-01-15T01:46:54;22.50;;;9.30;;
75456;SDS011;64036;48.266;14.192;2024-01-15T01:49:23;18.80;;;9.00;;
75456;SDS011;64036;48.266;14.192;2024-01-15T01:51:49;21.10;;;8.00;;
75456;SDS011;64036;48.266;14.192;2024-01-15T01:54:15;24.70;;;10.30;;
75456;SDS011;64036;48.266;14.192;2024-01-15T01:56:44;23.00;;;10.40;;
75456;SDS011;64036;48.266;14.192;2024-01-15T01:59:13;27.30;;;11.80;;
75456;SDS011;64036;48.266;14.192;2024-01-15T02:01:42;26.70;;;10.70;;
75456;SDS011;64036;48.266;14.192;2024-01-15T02:04:09;25.00;;;9.60;;
75456;SDS011;64036;48.266;14.192;2024-01-15T02:06:35;22.70;;;10.20;;
75456;SDS011;64036;48.266;14.192;2024-01-15T02:09:01;22.00;;;9.00;;
75456;SDS011;64036;48.266;14.192;2024-01-15T02:11:27;19.30;;;8.80;;
75456;SDS011;64036;48.266;14.192;2024-01-15T02:13:53;24.80;;;9.50;;
75456;SDS011;64036;48.266;14.192;2024-01-15T02:16:24;23.90;;;9.20;;
75456;SDS011;64036;48.266;14.192;2024-01-15T02:18:52;21.30;;;7.90;;
75456;SDS011;64036;48.266;14.192;2024-01-15T02:21:20;17.70;;;7.20;;
75456;SDS011;64036;48.266;14.192;2024-01-15T02:23:46;23.70;;;8.40;;
75456;SDS011;64036;48.266;14.192;2024-01-15T02:26:12;19.40;;;7.40;;
75456;SDS011;64036;48.266;14.192;2024-01-15T02:28:43;20.00;;;7.20;;
75456;SDS011;64036;48.266;14.192;2024-01-15T02:31:09;20.10;;;8.40;;
75456;SDS011;64036;48.266;14.192;2024-01-15T02:33:35;18.10;;;6.20;;
75456;SDS011;64036;48.266;14.192;2024-01-15T02:36:03;22.50;;;8.20;;
75456;SDS011;64036;48.266;14.192;2024-01-15T02:38:29;19.90;;;8.20;;
75456;SDS011;64036;48.266;14.192;2024-01-15T02:40:55;21.40;;;7.80;;
75456;SDS011;64036;48.266;14.192;2024-01-15T02:43:21;20.80;;;7.50;;
75456;SDS011;64036;48.266;14.192;2024-01-15T02:45:46;20.20;;;8.70;;
75456;SDS011;64036;48.266;14.192;2024-01-15T02:48:12;20.90;;;9.00;;
75456;SDS011;64036;48.266;14.192;2024-01-15T02:50:40;27.00;;;10.00;;
75456;SDS011;64036;48.266;14.192;2024-01-15T02:53:06;21.50;;;8.90;;
75456;SDS011;64036;48.266;14.192;2024-01-15T02:55:32;24.00;;;10.30;;
75456;SDS011;64036;48.266;14.192;2024-01-15T02:57:57;22.90;;;9.30;;
75456;SDS011;64036;48.266;14.192;2024-01-15T03:00:26;26.70;;;10.10;;
75456;SDS011;64036;48.266;14.192;2024-01-15T03:02:52;21.10;;;9.00;;
75456;SDS011;64036;48.266;14.192;2024-01-15T03:05:18;24.60;;;9.50;;
75456;SDS011;64036;48.266;14.192;2024-01-15T03:07:43;25.20;;;9.60;;
75456;SDS011;64036;48.266;14.192;2024-01-15T03:10:09;23.80;;;9.70;;
75456;SDS011;64036;48.266;14.192;2024-01-15T03:12:35;23.60;;;9.50;;
75456;SDS011;64036;48.266;14.192;2024-01-15T03:15:01;26.50;;;10.80;;
75456;SDS011;64036;48.266;14.192;2024-01-15T03:17:27;31.20;;;11.10;;
75456;SDS011;64036;48.266;14.192;2024-01-15T03:19:52;22.50;;;9.40;;
75456;SDS011;64036;48.266;14.192;2024-01-15T03:22:28;24.80;;;10.60;;
75456;SDS011;64036;48.266;14.192;2024-01-15T03:24:54;19.60;;;9.60;;
75456;SDS011;64036;48.266;14.192;2024-01-15T03:27:20;28.00;;;11.50;;
75456;SDS011;64036;48.266;14.192;2024-01-15T03:29:45;31.60;;;12.10;;
75456;SDS011;64036;48.266;14.192;2024-01-15T03:32:14;23.50;;;10.90;;
75456;SDS011;64036;48.266;14.192;2024-01-15T03:34:44;26.90;;;10.80;;
75456;SDS011;64036;48.266;14.192;2024-01-15T03:37:17;28.40;;;10.50;;
75456;SDS011;64036;48.266;14.192;2024-01-15T03:39:43;23.50;;;10.50;;
75456;SDS011;64036;48.266;14.192;2024-01-15T03:42:09;25.80;;;11.10;;
75456;SDS011;64036;48.266;14.192;2024-01-15T03:44:35;24.40;;;11.20;;
75456;SDS011;64036;48.266;14.192;2024-01-15T03:47:08;28.30;;;11.60;;
75456;SDS011;64036;48.266;14.192;2024-01-15T03:49:34;31.40;;;12.50;;
75456;SDS011;64036;48.266;14.192;2024-01-15T03:52:03;27.30;;;11.10;;
75456;SDS011;64036;48.266;14.192;2024-01-15T03:54:32;23.30;;;9.90;;
75456;SDS011;64036;48.266;14.192;2024-01-15T03:56:58;20.60;;;9.40;;
75456;SDS011;64036;48.266;14.192;2024-01-15T03:59:23;24.10;;;10.10;;
75456;SDS011;64036;48.266;14.192;2024-01-15T04:01:52;19.20;;;7.30;;
75456;SDS011;64036;48.266;14.192;2024-01-15T04:04:18;19.70;;;8.90;;
75456;SDS011;64036;48.266;14.192;2024-01-15T04:06:44;22.10;;;9.80;;
75456;SDS011;64036;48.266;14.192;2024-01-15T04:09:10;22.40;;;9.00;;
75456;SDS011;64036;48.266;14.192;2024-01-15T04:11:45;21.90;;;9.50;;
75456;SDS011;64036;48.266;14.192;2024-01-15T04:14:10;21.70;;;10.10;;
75456;SDS011;64036;48.266;14.192;2024-01-15T04:16:37;20.30;;;9.60;;
75456;SDS011;64036;48.266;14.192;2024-01-15T04:19:03;21.00;;;9.50;;
75456;SDS011;64036;48.266;14.192;2024-01-15T04:21:29;19.50;;;8.40;;
75456;SDS011;64036;48.266;14.192;2024-01-15T04:23:57;17.60;;;7.70;;
75456;SDS011;64036;48.266;14.192;2024-01-15T04:26:23;20.20;;;8.30;;
75456;SDS011;64036;48.266;14.192;2024-01-15T04:28:48;21.70;;;9.60;;
75456;SDS011;64036;48.266;14.192;2024-01-15T04:31:24;20.50;;;8.80;;
75456;SDS011;64036;48.266;14.192;2024-01-15T04:33:52;18.60;;;9.40;;
75456;SDS011;64036;48.266;14.192;2024-01-15T04:36:18;18.80;;;8.30;;
75456;SDS011;64036;48.266;14.192;2024-01-15T04:38:46;21.30;;;9.60;;
75456;SDS011;64036;48.266;14.192;2024-01-15T04:41:13;21.30;;;9.40;;
75456;SDS011;64036;48.266;14.192;2024-01-15T04:43:39;22.20;;;9.40;;
75456;SDS011;64036;48.266;14.192;2024-01-15T04:46:08;22.90;;;9.00;;
75456;SDS011;64036;48.266;14.192;2024-01-15T04:48:34;20.70;;;9.10;;
75456;SDS011;64036;48.266;14.192;2024-01-15T04:50:59;18.40;;;8.00;;
75456;SDS011;64036;48.266;14.192;2024-01-15T04:53:26;17.20;;;8.00;;
75456;SDS011;64036;48.266;14.192;2024-01-15T04:55:52;18.40;;;8.40;;
75456;SDS011;64036;48.266;14.192;2024-01-15T04:58:17;18.60;;;8.60;;
75456;SDS011;64036;48.266;14.192;2024-01-15T05:00:51;20.70;;;9.00;;
75456;SDS011;64036;48.266;14.192;2024-01-15T05:03:19;16.60;;;7.20;;
75456;SDS011;64036;48.266;14.192;2024-01-15T05:05:45;21.50;;;9.00;;
75456;SDS011;64036;48.266;14.192;2024-01-15T05:08:11;18.00;;;8.40;;
75456;SDS011;64036;48.266;14.192;2024-01-15T05:10:46;19.80;;;9.30;;
75456;SDS011;64036;48.266;14.192;2024-01-15T05:13:13;20.90;;;9.40;;
75456;SDS011;64036;48.266;14.192;2024-01-15T05:15:39;20.50;;;8.30;;
75456;SDS011;64036;48.266;14.192;2024-01-15T05:18:04;24.70;;;9.80;;
75456;SDS011;64036;48.266;14.192;2024-01-15T05:20:31;20.70;;;9.40;;
75456;SDS011;64036;48.266;14.192;2024-01-15T05:23:00;19.30;;;8.80;;
75456;SDS011;64036;48.266;14.192;2024-01-15T05:25:26;23.00;;;9.80;;
75456;SDS011;64036;48.266;14.192;2024-01-15T05:28:01;17.10;;;8.80;;
75456;SDS011;64036;48.266;14.192;2024-01-15T05:30:27;16.50;;;7.60;;
75456;SDS011;64036;48.266;14.192;2024-01-15T05:32:53;19.40;;;8.90;;
75456;SDS011;64036;48.266;14.192;2024-01-15T05:35:19;19.50;;;9.20;;
75456;SDS011;64036;48.266;14.192;2024-01-15T05:37:45;19.70;;;8.90;;
75456;SDS011;64036;48.266;14.192;2024-01-15T05:40:12;19.40;;;9.20;;
75456;SDS011;64036;48.266;14.192;2024-01-15T05:42:39;18.10;;;9.10;;
75456;SDS011;64036;48.266;14.192;2024-01-15T05:45:12;18.80;;;8.50;;
75456;SDS011;64036;48.266;14.192;2024-01-15T05:47:45;19.80;;;9.20;;
75456;SDS011;64036;48.266;14.192;2024-01-15T05:50:21;16.70;;;7.40;;
75456;SDS011;64036;48.266;14.192;2024-01-15T05:56:38;13.40;;;6.40;;
75456;SDS011;64036;48.266;14.192;2024-01-15T05:59:03;20.50;;;7.40;;
75456;SDS011;64036;48.266;14.192;2024-01-15T06:01:28;16.40;;;7.70;;
75456;SDS011;64036;48.266;14.192;2024-01-15T06:03:54;15.00;;;7.30;;
75456;SDS011;64036;48.266;14.192;2024-01-15T06:06:28;16.90;;;7.70;;
75456;SDS011;64036;48.266;14.192;2024-01-15T06:08:54;12.40;;;6.50;;
75456;SDS011;64036;48.266;14.192;2024-01-15T06:11:19;17.90;;;7.00;;
75456;SDS011;64036;48.266;14.192;2024-01-15T06:13:45;18.50;;;7.80;;
75456;SDS011;64036;48.266;14.192;2024-01-15T06:16:19;17.70;;;7.20;;
75456;SDS011;64036;48.266;14.192;2024-01-15T06:18:46;18.10;;;7.90;;
75456;SDS011;64036;48.266;14.192;2024-01-15T06:21:12;16.40;;;7.50;;
75456;SDS011;64036;48.266;14.192;2024-01-15T06:23:39;16.50;;;6.80;;
75456;SDS011;64036;48.266;14.192;2024-01-15T06:26:05;15.10;;;6.20;;
75456;SDS011;64036;48.266;14.192;2024-01-15T06:28:31;18.20;;;8.30;;
75456;SDS011;64036;48.266;14.192;2024-01-15T06:31:03;20.00;;;8.10;;
75456;SDS011;64036;48.266;14.192;2024-01-15T06:33:29;16.10;;;7.00;;
75456;SDS011;64036;48.266;14.192;2024-01-15T06:35:55;17.30;;;7.80;;
75456;SDS011;64036;48.266;14.192;2024-01-15T06:38:24;15.50;;;7.20;;
75456;SDS011;64036;48.266;14.192;2024-01-15T06:40:53;15.70;;;6.60;;
75456;SDS011;64036;48.266;14.192;2024-01-15T06:43:19;16.20;;;6.70;;
75456;SDS011;64036;48.266;14.192;2024-01-15T06:45:45;14.90;;;6.40;;
75456;SDS011;64036;48.266;14.192;2024-01-15T06:48:10;15.90;;;7.40;;
75456;SDS011;64036;48.266;14.192;2024-01-15T06:50:45;17.90;;;8.10;;
75456;SDS011;64036;48.266;14.192;2024-01-15T06:53:28;18.60;;;8.70;;
75456;SDS011;64036;48.266;14.192;2024-01-15T06:59:34;16.40;;;6.90;;
75456;SDS011;64036;48.266;14.192;2024-01-15T07:02:03;21.40;;;9.10;;
75456;SDS011;64036;48.266;14.192;2024-01-15T07:04:39;18.70;;;8.30;;
75456;SDS011;64036;48.266;14.192;2024-01-15T07:07:19;14.70;;;7.00;;
75456;SDS011;64036;48.266;14.192;2024-01-15T07:09:55;15.40;;;6.40;;
75456;SDS011;64036;48.266;14.192;2024-01-15T07:12:47;14.80;;;6.60;;
75456;SDS011;64036;48.266;14.192;2024-01-15T07:15:23;17.00;;;7.90;;
75456;SDS011;64036;48.266;14.192;2024-01-15T07:18:23;16.20;;;6.80;;
75456;SDS011;64036;48.266;14.192;2024-01-15T07:20:52;17.10;;;7.40;;
75456;SDS011;64036;48.266;14.192;2024-01-15T07:26:40;18.80;;;8.20;;
75456;SDS011;64036;48.266;14.192;2024-01-15T07:29:47;12.70;;;5.70;;
75456;SDS011;64036;48.266;14.192;2024-01-15T07:35:15;15.10;;;7.50;;
75456;SDS011;64036;48.266;14.192;2024-01-15T07:46:47;13.70;;;6.40;;
75456;SDS011;64036;48.266;14.192;2024-01-15T07:50:10;9.30;;;4.60;;
75456;SDS011;64036;48.266;14.192;2024-01-15T07:52:46;14.60;;;7.50;;
75456;SDS011;64036;48.266;14.192;2024-01-15T07:55:31;15.20;;;6.60;;
75456;SDS011;64036;48.266;14.192;2024-01-15T07:58:17;14.30;;;6.50;;
75456;SDS011;64036;48.266;14.192;2024-01-15T08:01:18;15.60;;;7.20;;
75456;SDS011;64036;48.266;14.192;2024-01-15T08:06:56;15.80;;;7.00;;
75456;SDS011;64036;48.266;14.192;2024-01-15T08:09:22;11.40;;;5.50;;
75456;SDS011;64036;48.266;14.192;2024-01-15T08:12:06;16.30;;;7.20;;
75456;SDS011;64036;48.266;14.192;2024-01-15T08:18:07;12.80;;;6.70;;
75456;SDS011;64036;48.266;14.192;2024-01-15T08:21:10;18.90;;;7.40;;
75456;SDS011;64036;48.266;14.192;2024-01-15T08:24:00;11.00;;;5.00;;
75456;SDS011;64036;48.266;14.192;2024-01-15T08:26:56;12.50;;;6.00;;
75456;SDS011;64036;48.266;14.192;2024-01-15T08:29:38;12.90;;;6.20;;
75456;SDS011;64036;48.266;14.192;2024-01-15T08:32:23;13.60;;;6.60;;
75456;SDS011;64036;48.266;14.192;2024-01-15T08:35:08;13.90;;;6.70;;
75456;SDS011;64036;48.266;14.192;2024-01-15T08:38:02;13.40;;;6.50;;
75456;SDS011;64036;48.266;14.192;2024-01-15T08:40:28;16.50;;;7.90;;
75456;SDS011;64036;48.266;14.192;2024-01-15T08:42:57;14.20;;;7.00;;
75456;SDS011;64036;48.266;14.192;2024-01-15T08:45:22;13.70;;;6.90;;
75456;SDS011;64036;48.266;14.192;2024-01-15T08:47:59;12.50;;;6.50;;
75456;SDS011;64036;48.266;14.192;2024-01-15T08:50:29;11.90;;;6.70;;
75456;SDS011;64036;48.266;14.192;2024-01-15T08:53:23;13.20;;;6.30;;
75456;SDS011;64036;48.266;14.192;2024-01-15T08:55:57;15.20;;;7.40;;
75456;SDS011;64036;48.266;14.192;2024-01-15T09:01:25;17.60;;;8.70;;
75456;SDS011;64036;48.266;14.192;2024-01-15T09:04:04;17.80;;;7.00;;
75456;SDS011;64036;48.266;14.192;2024-01-15T09:06:30;14.30;;;7.50;;
75456;SDS011;64036;48.266;14.192;2024-01-15T09:08:58;14.50;;;6.90;;
75456;SDS011;64036;48.266;14.192;2024-01-15T09:11:31;14.10;;;6.60;;
75456;SDS011;64036;48.266;14.192;2024-01-15T09:14:16;16.40;;;8.10;;
75456;SDS011;64036;48.266;14.192;2024-01-15T09:16:44;17.40;;;7.70;;
75456;SDS011;64036;48.266;14.192;2024-01-15T09:19:11;15.70;;;7.30;;
75456;SDS011;64036;48.266;14.192;2024-01-15T09:21:38;14.00;;;6.80;;
75456;SDS011;64036;48.266;14.192;2024-01-15T09:24:16;14.50;;;6.40;;
75456;SDS011;64036;48.266;14.192;2024-01-15T09:27:02;10.00;;;5.50;;
75456;SDS011;64036;48.266;14.192;2024-01-15T09:29:37;12.30;;;5.80;;
75456;SDS011;64036;48.266;14.192;2024-01-15T09:32:07;11.60;;;5.30;;
75456;SDS011;64036;48.266;14.192;2024-01-15T09:34:34;10.70;;;5.50;;
75456;SDS011;64036;48.266;14.192;2024-01-15T09:37:03;10.80;;;5.10;;
75456;SDS011;64036;48.266;14.192;2024-01-15T09:39:37;10.80;;;5.60;;
75456;SDS011;64036;48.266;14.192;2024-01-15T09:42:14;10.40;;;4.90;;
75456;SDS011;64036;48.266;14.192;2024-01-15T09:44:56;9.80;;;5.00;;
75456;SDS011;64036;48.266;14.192;2024-01-15T09:47:38;9.10;;;4.70;;
75456;SDS011;64036;48.266;14.192;2024-01-15T09:50:21;10.50;;;5.20;;
75456;SDS011;64036;48.266;14.192;2024-01-15T09:52:50;10.30;;;5.00;;
75456;SDS011;64036;48.266;14.192;2024-01-15T09:55:17;10.80;;;5.60;;
75456;SDS011;64036;48.266;14.192;2024-01-15T09:57:44;9.80;;;5.00;;
75456;SDS011;64036;48.266;14.192;2024-01-15T10:00:37;11.50;;;6.10;;
75456;SDS011;64036;48.266;14.192;2024-01-15T10:03:07;11.00;;;5.10;;
75456;SDS011;64036;48.266;14.192;2024-01-15T10:05:45;9.90;;;5.10;;
75456;SDS011;64036;48.266;14.192;2024-01-15T10:08:16;10.60;;;4.50;;
75456;SDS011;64036;48.266;14.192;2024-01-15T10:10:45;11.90;;;5.20;;
75456;SDS011;64036;48.266;14.192;2024-01-15T10:13:16;11.90;;;5.60;;
75456;SDS011;64036;48.266;14.192;2024-01-15T10:15:48;9.50;;;5.40;;
75456;SDS011;64036;48.266;14.192;2024-01-15T10:18:15;9.90;;;5.40;;
75456;SDS011;64036;48.266;14.192;2024-01-15T10:20:57;12.00;;;5.90;;
75456;SDS011;64036;48.266;14.192;2024-01-15T10:23:32;11.50;;;6.30;;
75456;SDS011;64036;48.266;14.192;2024-01-15T10:25:58;9.10;;;4.30;;
75456;SDS011;64036;48.266;14.192;2024-01-15T10:28:26;7.60;;;3.90;;
75456;SDS011;64036;48.266;14.192;2024-01-15T10:31:07;7.80;;;4.00;;
75456;SDS011;64036;48.266;14.192;2024-01-15T10:33:44;6.50;;;3.60;;
75456;SDS011;64036;48.266;14.192;2024-01-15T10:36:10;7.90;;;3.60;;
75456;SDS011;64036;48.266;14.192;2024-01-15T10:38:39;8.40;;;3.90;;
75456;SDS011;64036;48.266;14.192;2024-01-15T10:41:18;7.10;;;3.80;;
75456;SDS011;64036;48.266;14.192;2024-01-15T10:44:25;8.40;;;3.90;;
75456;SDS011;64036;48.266;14.192;2024-01-15T10:47:00;9.00;;;3.70;;
75456;SDS011;64036;48.266;14.192;2024-01-15T10:49:27;6.90;;;3.30;;
75456;SDS011;64036;48.266;14.192;2024-01-15T10:52:05;4.40;;;2.70;;
75456;SDS011;64036;48.266;14.192;2024-01-15T10:54:32;6.40;;;3.20;;
75456;SDS011;64036;48.266;14.192;2024-01-15T10:56:58;6.40;;;3.20;;
75456;SDS011;64036;48.266;14.192;2024-01-15T10:59:24;6.30;;;3.00;;
75456;SDS011;64036;48.266;14.192;2024-01-15T11:01:56;6.40;;;2.90;;
75456;SDS011;64036;48.266;14.192;2024-01-15T11:06:54;5.70;;;2.80;;
75456;SDS011;64036;48.266;14.192;2024-01-15T11:09:21;6.00;;;2.70;;
75456;SDS011;64036;48.266;14.192;2024-01-15T11:11:47;5.90;;;2.80;;
75456;SDS011;64036;48.266;14.192;2024-01-15T11:14:34;6.60;;;2.80;;
75456;SDS011;64036;48.266;14.192;2024-01-15T11:17:09;5.20;;;2.80;;
75456;SDS011;64036;48.266;14.192;2024-01-15T11:19:45;5.30;;;2.40;;
75456;SDS011;64036;48.266;14.192;2024-01-15T11:22:53;3.70;;;2.30;;
75456;SDS011;64036;48.266;14.192;2024-01-15T11:28:03;6.20;;;2.90;;
75456;SDS011;64036;48.266;14.192;2024-01-15T11:30:30;4.80;;;2.60;;
75456;SDS011;64036;48.266;14.192;2024-01-15T11:32:55;6.90;;;3.10;;
75456;SDS011;64036;48.266;14.192;2024-01-15T11:35:21;5.60;;;3.00;;
75456;SDS011;64036;48.266;14.192;2024-01-15T11:40:20;7.40;;;3.00;;
75456;SDS011;64036;48.266;14.192;2024-01-15T11:42:58;6.70;;;3.20;;
75456;SDS011;64036;48.266;14.192;2024-01-15T11:45:24;5.70;;;3.00;;
75456;SDS011;64036;48.266;14.192;2024-01-15T11:48:13;4.40;;;2.70;;
75456;SDS011;64036;48.266;14.192;2024-01-15T11:50:50;7.50;;;3.60;;
75456;SDS011;64036;48.266;14.192;2024-01-15T11:55:58;6.30;;;3.00;;
75456;SDS011;64036;48.266;14.192;2024-01-15T11:58:27;7.10;;;3.40;;
75456;SDS011;64036;48.266;14.192;2024-01-15T12:00:53;5.50;;;2.70;;
75456;SDS011;64036;48.266;14.192;2024-01-15T12:03:24;5.30;;;2.60;;
75456;SDS011;64036;48.266;14.192;2024-01-15T12:05:52;6.30;;;3.10;;
75456;SDS011;64036;48.266;14.192;2024-01-15T12:08:22;6.70;;;2.90;;
75456;SDS011;64036;48.266;14.192;2024-01-15T12:10:49;5.10;;;2.70;;
75456;SDS011;64036;48.266;14.192;2024-01-15T12:13:15;3.80;;;2.30;;
75456;SDS011;64036;48.266;14.192;2024-01-15T12:15:46;6.00;;;2.60;;
75456;SDS011;64036;48.266;14.192;2024-01-15T12:18:14;7.60;;;2.90;;
75456;SDS011;64036;48.266;14.192;2024-01-15T12:20:42;6.90;;;2.90;;
75456;SDS011;64036;48.266;14.192;2024-01-15T12:23:12;8.20;;;2.60;;
75456;SDS011;64036;48.266;14.192;2024-01-15T12:25:39;5.00;;;2.30;;
75456;SDS011;64036;48.266;14.192;2024-01-15T12:28:07;7.60;;;3.40;;
75456;SDS011;64036;48.266;14.192;2024-01-15T12:30:39;5.50;;;2.50;;
75456;SDS011;64036;48.266;14.192;2024-01-15T12:33:08;5.20;;;2.50;;
75456;SDS011;64036;48.266;14.192;2024-01-15T12:38:02;4.70;;;2.50;;
75456;SDS011;64036;48.266;14.192;2024-01-15T12:40:30;5.60;;;2.50;;
75456;SDS011;64036;48.266;14.192;2024-01-15T12:42:57;5.30;;;2.70;;
75456;SDS011;64036;48.266;14.192;2024-01-15T12:45:25;4.00;;;2.10;;
75456;SDS011;64036;48.266;14.192;2024-01-15T12:47:52;5.80;;;2.90;;
75456;SDS011;64036;48.266;14.192;2024-01-15T12:50:18;4.90;;;2.40;;
75456;SDS011;64036;48.266;14.192;2024-01-15T12:52:44;5.40;;;2.60;;
75456;SDS011;64036;48.266;14.192;2024-01-15T12:55:10;7.00;;;3.20;;
75456;SDS011;64036;48.266;14.192;2024-01-15T12:57:39;6.00;;;2.40;;
75456;SDS011;64036;48.266;14.192;2024-01-15T13:00:08;5.50;;;3.20;;
75456;SDS011;64036;48.266;14.192;2024-01-15T13:02:38;5.40;;;2.50;;
75456;SDS011;64036;48.266;14.192;2024-01-15T13:05:09;7.20;;;3.00;;
75456;SDS011;64036;48.266;14.192;2024-01-15T13:07:36;5.20;;;2.70;;
75456;SDS011;64036;48.266;14.192;2024-01-15T13:10:03;6.20;;;2.40;;
75456;SDS011;64036;48.266;14.192;2024-01-15T13:12:29;4.60;;;2.50;;
75456;SDS011;64036;48.266;14.192;2024-01-15T13:14:55;7.10;;;2.70;;
75456;SDS011;64036;48.266;14.192;2024-01-15T13:17:23;4.10;;;2.40;;
75456;SDS011;64036;48.266;14.192;2024-01-15T13:19:49;4.90;;;2.50;;
75456;SDS011;64036;48.266;14.192;2024-01-15T13:22:15;5.20;;;2.70;;
75456;SDS011;64036;48.266;14.192;2024-01-15T13:24:41;5.00;;;2.40;;
75456;SDS011;64036;48.266;14.192;2024-01-15T13:27:14;3.90;;;2.10;;
75456;SDS011;64036;48.266;14.192;2024-01-15T13:29:40;4.10;;;2.00;;
75456;SDS011;64036;48.266;14.192;2024-01-15T13:32:06;5.60;;;2.70;;
75456;SDS011;64036;48.266;14.192;2024-01-15T13:34:35;5.50;;;2.80;;
75456;SDS011;64036;48.266;14.192;2024-01-15T13:37:01;4.30;;;2.40;;
75456;SDS011;64036;48.266;14.192;2024-01-15T13:39:27;4.90;;;2.30;;
75456;SDS011;64036;48.266;14.192;2024-01-15T13:41:52;4.40;;;2.60;;
75456;SDS011;64036;48.266;14.192;2024-01-15T13:44:18;4.90;;;2.50;;
75456;SDS011;64036;48.266;14.192;2024-01-15T13:46:44;4.30;;;2.20;;
75456;SDS011;64036;48.266;14.192;2024-01-15T13:49:10;4.70;;;2.20;;
75456;SDS011;64036;48.266;14.192;2024-01-15T13:51:39;4.00;;;2.30;;
75456;SDS011;64036;48.266;14.192;2024-01-15T13:54:16;4.00;;;1.70;;
75456;SDS011;64036;48.266;14.192;2024-01-15T13:56:42;3.40;;;2.00;;
75456;SDS011;64036;48.266;14.192;2024-01-15T13:59:08;3.60;;;2.00;;
75456;SDS011;64036;48.266;14.192;2024-01-15T14:01:34;3.60;;;2.00;;
75456;SDS011;64036;48.266;14.192;2024-01-15T14:04:00;4.00;;;2.00;;
75456;SDS011;64036;48.266;14.192;2024-01-15T14:06:26;2.10;;;1.50;;
75456;SDS011;64036;48.266;14.192;2024-01-15T14:08:52;4.00;;;2.30;;
75456;SDS011;64036;48.266;14.192;2024-01-15T14:11:17;5.00;;;2.20;;
75456;SDS011;64036;48.266;14.192;2024-01-15T14:13:43;3.70;;;2.00;;
75456;SDS011;64036;48.266;14.192;2024-01-15T14:16:11;4.60;;;2.20;;
75456;SDS011;64036;48.266;14.192;2024-01-15T14:18:37;4.60;;;1.90;;
75456;SDS011;64036;48.266;14.192;2024-01-15T14:21:03;3.80;;;2.10;;
75456;SDS011;64036;48.266;14.192;2024-01-15T14:23:29;4.80;;;2.30;;
75456;SDS011;64036;48.266;14.192;2024-01-15T14:25:56;4.30;;;2.00;;
75456;SDS011;64036;48.266;14.192;2024-01-15T14:28:22;4.70;;;2.10;;
75456;SDS011;64036;48.266;14.192;2024-01-15T14:30:48;4.50;;;2.00;;
75456;SDS011;64036;48.266;14.192;2024-01-15T14:33:14;3.80;;;2.10;;
75456;SDS011;64036;48.266;14.192;2024-01-15T14:35:40;3.30;;;1.90;;
75456;SDS011;64036;48.266;14.192;2024-01-15T14:38:06;4.20;;;2.20;;
75456;SDS011;64036;48.266;14.192;2024-01-15T14:40:33;3.40;;;1.90;;
75456;SDS011;64036;48.266;14.192;2024-01-15T14:43:02;3.00;;;1.90;;
75456;SDS011;64036;48.266;14.192;2024-01-15T14:45:28;5.50;;;2.00;;
75456;SDS011;64036;48.266;14.192;2024-01-15T14:47:55;4.60;;;1.90;;
75456;SDS011;64036;48.266;14.192;2024-01-15T14:50:22;3.90;;;1.90;;
75456;SDS011;64036;48.266;14.192;2024-01-15T14:52:51;2.40;;;1.70;;
75456;SDS011;64036;48.266;14.192;2024-01-15T14:55:20;3.80;;;2.20;;
75456;SDS011;64036;48.266;14.192;2024-01-15T14:57:49;4.10;;;1.90;;
75456;SDS011;64036;48.266;14.192;2024-01-15T15:00:17;3.10;;;2.00;;
75456;SDS011;64036;48.266;14.192;2024-01-15T15:02:46;3.50;;;1.90;;
75456;SDS011;64036;48.266;14.192;2024-01-15T15:05:12;3.20;;;1.90;;
75456;SDS011;64036;48.266;14.192;2024-01-15T15:07:39;2.00;;;1.40;;
75456;SDS011;64036;48.266;14.192;2024-01-15T15:10:07;3.60;;;1.80;;
75456;SDS011;64036;48.266;14.192;2024-01-15T15:12:33;3.00;;;1.70;;
75456;SDS011;64036;48.266;14.192;2024-01-15T15:14:59;3.30;;;1.80;;
75456;SDS011;64036;48.266;14.192;2024-01-15T15:17:26;3.30;;;1.90;;
75456;SDS011;64036;48.266;14.192;2024-01-15T15:19:52;2.40;;;1.40;;
75456;SDS011;64036;48.266;14.192;2024-01-15T15:22:19;3.00;;;1.80;;
75456;SDS011;64036;48.266;14.192;2024-01-15T15:24:45;4.10;;;1.60;;
75456;SDS011;64036;48.266;14.192;2024-01-15T15:27:20;2.40;;;1.40;;
75456;SDS011;64036;48.266;14.192;2024-01-15T15:29:46;4.50;;;2.10;;
75456;SDS011;64036;48.266;14.192;2024-01-15T15:32:13;2.80;;;1.80;;
75456;SDS011;64036;48.266;14.192;2024-01-15T15:34:39;3.10;;;1.80;;
75456;SDS011;64036;48.266;14.192;2024-01-15T15:37:05;3.20;;;1.90;;
75456;SDS011;64036;48.266;14.192;2024-01-15T15:39:31;3.10;;;1.80;;
75456;SDS011;64036;48.266;14.192;2024-01-15T15:41:56;3.90;;;1.90;;
75456;SDS011;64036;48.266;14.192;2024-01-15T15:44:23;2.60;;;1.60;;
75456;SDS011;64036;48.266;14.192;2024-01-15T15:46:52;4.70;;;2.00;;
75456;SDS011;64036;48.266;14.192;2024-01-15T15:49:17;3.40;;;1.80;;
75456;SDS011;64036;48.266;14.192;2024-01-15T15:51:43;4.90;;;2.00;;